sensor_id;sensor_type;location;lat;lon;timestamp;temperature;humidity
52107;DHT22;38105;52.968;5.974;2022-08-19T00:01:49;15.90;99.90
52107;DHT22;38105;52.968;5.974;2022-08-19T00:04:18;15.80;99.90
52107;DHT22;38105;52.968;5.974;2022-08-19T00:06:46;15.70;99.90
52107;DHT22;38105;52.968;5.974;2022-08-19T00:09:15;15.70;99.90
52107;DHT22;38105;52.968;5.974;2022-08-19T00:11:41;15.80;99.90
52107;DHT22;38105;52.968;5.974;2022-08-19T00:14:10;15.70;99.90
52107;DHT22;38105;52.968;5.974;2022-08-19T00:16:41;15.90;99.90
52107;DHT22;38105;52.968;5.974;2022-08-19T00:19:08;15.70;99.90
52107;DHT22;38105;52.968;5.974;2022-08-19T00:21:34;15.90;99.90
52107;DHT22;38105;52.968;5.974;2022-08-19T00:24:04;15.90;99.90
52107;DHT22;38105;52.968;5.974;2022-08-19T00:26:29;15.90;99.90
52107;DHT22;38105;52.968;5.974;2022-08-19T00:28:55;15.70;99.90
52107;DHT22;38105;52.968;5.974;2022-08-19T00:31:21;15.90;99.90
52107;DHT22;38105;52.968;5.974;2022-08-19T00:33:46;15.70;99.90
52107;DHT22;38105;52.968;5.974;2022-08-19T00:36:14;15.70;99.90
52107;DHT22;38105;52.968;5.974;2022-08-19T00:38:40;15.70;99.90
52107;DHT22;38105;52.968;5.974;2022-08-19T00:41:17;15.70;99.90
52107;DHT22;38105;52.968;5.974;2022-08-19T00:43:58;15.70;99.90
52107;DHT22;38105;52.968;5.974;2022-08-19T00:46:24;15.70;99.90
52107;DHT22;38105;52.968;5.974;2022-08-19T00:48:49;15.60;99.90
52107;DHT22;38105;52.968;5.974;2022-08-19T00:51:15;15.70;99.90
52107;DHT22;38105;52.968;5.974;2022-08-19T00:53:41;15.80;99.90
52107;DHT22;38105;52.968;5.974;2022-08-19T00:56:07;15.50;99.90
52107;DHT22;38105;52.968;5.974;2022-08-19T00:58:36;15.70;99.90
52107;DHT22;38105;52.968;5.974;2022-08-19T01:01:04;15.70;99.90
52107;DHT22;38105;52.968;5.974;2022-08-19T01:03:29;15.40;99.90
52107;DHT22;38105;52.968;5.974;2022-08-19T01:05:55;15.30;99.90
52107;DHT22;38105;52.968;5.974;2022-08-19T01:08:21;15.40;99.90
52107;DHT22;38105;52.968;5.974;2022-08-19T01:10:51;15.50;99.90
52107;DHT22;38105;52.968;5.974;2022-08-19T01:13:20;15.40;99.90
52107;DHT22;38105;52.968;5.974;2022-08-19T01:15:50;15.40;99.90
52107;DHT22;38105;52.968;5.974;2022-08-19T01:18:18;15.30;99.90
52107;DHT22;38105;52.968;5.974;2022-08-19T01:20:45;15.30;99.90
52107;DHT22;38105;52.968;5.974;2022-08-19T01:23:12;15.10;99.90
52107;DHT22;38105;52.968;5.974;2022-08-19T01:28:17;15.10;99.90
52107;DHT22;38105;52.968;5.974;2022-08-19T01:30:45;14.90;99.90
52107;DHT22;38105;52.968;5.974;2022-08-19T01:33:13;14.80;99.90
52107;DHT22;38105;52.968;5.974;2022-08-19T01:35:39;14.80;99.90
52107;DHT22;38105;52.968;5.974;2022-08-19T01:38:08;14.80;99.90
52107;DHT22;38105;52.968;5.974;2022-08-19T01:40:38;14.90;99.90
52107;DHT22;38105;52.968;5.974;2022-08-19T01:43:05;14.90;99.90
52107;DHT22;38105;52.968;5.974;2022-08-19T01:45:33;15.00;99.90
52107;DHT22;38105;52.968;5.974;2022-08-19T01:47:59;15.00;99.90
52107;DHT22;38105;52.968;5.974;2022-08-19T01:50:25;15.00;99.90
52107;DHT22;38105;52.968;5.974;2022-08-19T01:52:52;14.80;99.90
52107;DHT22;38105;52.968;5.974;2022-08-19T01:55:19;15.00;99.90
52107;DHT22;38105;52.968;5.974;2022-08-19T01:57:52;15.00;99.90
52107;DHT22;38105;52.968;5.974;2022-08-19T02:00:22;14.80;99.90
52107;DHT22;38105;52.968;5.974;2022-08-19T02:02:48;14.80;99.90
52107;DHT22;38105;52.968;5.974;2022-08-19T02:05:14;15.00;99.90
52107;DHT22;38105;52.968;5.974;2022-08-19T02:07:44;14.80;99.90
52107;DHT22;38105;52.968;5.974;2022-08-19T02:10:14;14.80;99.90
52107;DHT22;38105;52.968;5.974;2022-08-19T02:12:40;14.80;99.90
52107;DHT22;38105;52.968;5.974;2022-08-19T02:15:06;14.80;99.90
52107;DHT22;38105;52.968;5.974;2022-08-19T02:17:33;14.90;99.90
52107;DHT22;38105;52.968;5.974;2022-08-19T02:20:02;14.70;99.90
52107;DHT22;38105;52.968;5.974;2022-08-19T02:22:28;14.90;99.90
52107;DHT22;38105;52.968;5.974;2022-08-19T02:24:54;14.90;99.90
52107;DHT22;38105;52.968;5.974;2022-08-19T02:27:20;14.80;99.90
52107;DHT22;38105;52.968;5.974;2022-08-19T02:29:48;14.90;99.90
52107;DHT22;38105;52.968;5.974;2022-08-19T02:32:15;14.70;99.90
52107;DHT22;38105;52.968;5.974;2022-08-19T02:34:41;14.90;99.90
52107;DHT22;38105;52.968;5.974;2022-08-19T02:37:07;14.90;99.90
52107;DHT22;38105;52.968;5.974;2022-08-19T02:39:56;14.60;99.90
52107;DHT22;38105;52.968;5.974;2022-08-19T02:42:22;14.80;99.90
52107;DHT22;38105;52.968;5.974;2022-08-19T02:44:48;14.70;99.90
52107;DHT22;38105;52.968;5.974;2022-08-19T02:47:13;14.50;99.90
52107;DHT22;38105;52.968;5.974;2022-08-19T02:49:40;14.70;99.90
52107;DHT22;38105;52.968;5.974;2022-08-19T02:52:06;14.80;99.90
52107;DHT22;38105;52.968;5.974;2022-08-19T02:54:32;14.50;99.90
52107;DHT22;38105;52.968;5.974;2022-08-19T02:56:58;14.70;99.90
52107;DHT22;38105;52.968;5.974;2022-08-19T02:59:24;14.60;99.90
52107;DHT22;38105;52.968;5.974;2022-08-19T03:01:52;14.50;99.90
52107;DHT22;38105;52.968;5.974;2022-08-19T03:04:18;14.80;99.90
52107;DHT22;38105;52.968;5.974;2022-08-19T03:06:46;14.50;99.90
52107;DHT22;38105;52.968;5.974;2022-08-19T03:09:13;14.60;99.90
52107;DHT22;38105;52.968;5.974;2022-08-19T03:11:39;14.60;99.90
52107;DHT22;38105;52.968;5.974;2022-08-19T03:14:06;14.60;99.90
52107;DHT22;38105;52.968;5.974;2022-08-19T03:16:47;14.80;99.90
52107;DHT22;38105;52.968;5.974;2022-08-19T03:19:13;14.60;99.90
52107;DHT22;38105;52.968;5.974;2022-08-19T03:21:42;14.90;99.90
52107;DHT22;38105;52.968;5.974;2022-08-19T03:24:10;14.70;99.90
52107;DHT22;38105;52.968;5.974;2022-08-19T03:26:44;14.90;99.90
52107;DHT22;38105;52.968;5.974;2022-08-19T03:29:10;14.80;99.90
52107;DHT22;38105;52.968;5.974;2022-08-19T03:31:37;14.60;99.90
52107;DHT22;38105;52.968;5.974;2022-08-19T03:34:04;14.60;99.90
52107;DHT22;38105;52.968;5.974;2022-08-19T03:36:30;14.70;99.90
52107;DHT22;38105;52.968;5.974;2022-08-19T03:38:57;14.50;99.90
52107;DHT22;38105;52.968;5.974;2022-08-19T03:41:28;14.50;99.90
52107;DHT22;38105;52.968;5.974;2022-08-19T03:43:56;14.50;99.90
52107;DHT22;38105;52.968;5.974;2022-08-19T03:46:25;14.40;99.90
52107;DHT22;38105;52.968;5.974;2022-08-19T03:48:53;14.50;99.90
52107;DHT22;38105;52.968;5.974;2022-08-19T03:51:30;14.50;99.90
52107;DHT22;38105;52.968;5.974;2022-08-19T03:53:58;14.60;99.90
52107;DHT22;38105;52.968;5.974;2022-08-19T03:56:25;14.70;99.90
52107;DHT22;38105;52.968;5.974;2022-08-19T03:58:52;14.70;99.90
52107;DHT22;38105;52.968;5.974;2022-08-19T04:01:20;14.60;99.90
52107;DHT22;38105;52.968;5.974;2022-08-19T04:03:47;14.90;99.90
52107;DHT22;38105;52.968;5.974;2022-08-19T04:06:20;14.70;99.90
52107;DHT22;38105;52.968;5.974;2022-08-19T04:08:48;14.80;99.90
52107;DHT22;38105;52.968;5.974;2022-08-19T04:11:18;14.60;99.90
52107;DHT22;38105;52.968;5.974;2022-08-19T04:13:46;14.80;99.90
52107;DHT22;38105;52.968;5.974;2022-08-19T04:16:12;14.60;99.90
52107;DHT22;38105;52.968;5.974;2022-08-19T04:18:39;14.60;99.90
52107;DHT22;38105;52.968;5.974;2022-08-19T04:21:06;14.60;99.90
52107;DHT22;38105;52.968;5.974;2022-08-19T04:23:33;14.80;99.90
52107;DHT22;38105;52.968;5.974;2022-08-19T04:25:59;14.80;99.90
52107;DHT22;38105;52.968;5.974;2022-08-19T04:28:25;14.80;99.90
52107;DHT22;38105;52.968;5.974;2022-08-19T04:30:53;14.90;99.90
52107;DHT22;38105;52.968;5.974;2022-08-19T04:33:22;14.70;99.90
52107;DHT22;38105;52.968;5.974;2022-08-19T04:35:49;14.80;99.90
52107;DHT22;38105;52.968;5.974;2022-08-19T04:38:17;15.00;99.90
52107;DHT22;38105;52.968;5.974;2022-08-19T04:40:49;14.90;99.90
52107;DHT22;38105;52.968;5.974;2022-08-19T04:43:35;14.80;99.90
52107;DHT22;38105;52.968;5.974;2022-08-19T04:46:06;14.80;99.90
52107;DHT22;38105;52.968;5.974;2022-08-19T04:48:32;14.80;99.90
52107;DHT22;38105;52.968;5.974;2022-08-19T04:50:58;14.80;99.90
52107;DHT22;38105;52.968;5.974;2022-08-19T04:53:26;14.80;99.90
52107;DHT22;38105;52.968;5.974;2022-08-19T04:55:54;15.10;99.90
52107;DHT22;38105;52.968;5.974;2022-08-19T04:58:23;14.80;99.90
52107;DHT22;38105;52.968;5.974;2022-08-19T05:00:49;15.20;99.90
52107;DHT22;38105;52.968;5.974;2022-08-19T05:03:14;15.20;99.90
52107;DHT22;38105;52.968;5.974;2022-08-19T05:05:43;15.40;99.90
52107;DHT22;38105;52.968;5.974;2022-08-19T05:08:11;15.50;99.90
52107;DHT22;38105;52.968;5.974;2022-08-19T05:10:40;15.80;99.90
52107;DHT22;38105;52.968;5.974;2022-08-19T05:13:06;16.20;99.90
52107;DHT22;38105;52.968;5.974;2022-08-19T05:15:31;16.40;99.90
52107;DHT22;38105;52.968;5.974;2022-08-19T05:17:57;16.90;99.90
52107;DHT22;38105;52.968;5.974;2022-08-19T05:20:41;17.30;99.90
52107;DHT22;38105;52.968;5.974;2022-08-19T05:23:26;17.90;99.90
52107;DHT22;38105;52.968;5.974;2022-08-19T05:25:51;18.90;99.90
52107;DHT22;38105;52.968;5.974;2022-08-19T05:28:19;19.90;99.90
52107;DHT22;38105;52.968;5.974;2022-08-19T05:30:45;20.70;99.90
52107;DHT22;38105;52.968;5.974;2022-08-19T05:33:12;21.30;99.90
52107;DHT22;38105;52.968;5.974;2022-08-19T05:35:38;21.90;99.90
52107;DHT22;38105;52.968;5.974;2022-08-19T05:38:05;22.50;99.90
52107;DHT22;38105;52.968;5.974;2022-08-19T05:40:38;23.00;99.90
52107;DHT22;38105;52.968;5.974;2022-08-19T05:43:05;23.50;99.90
52107;DHT22;38105;52.968;5.974;2022-08-19T05:45:32;24.00;99.90
52107;DHT22;38105;52.968;5.974;2022-08-19T05:47:57;24.20;99.90
52107;DHT22;38105;52.968;5.974;2022-08-19T05:50:24;24.30;99.90
52107;DHT22;38105;52.968;5.974;2022-08-19T05:52:52;24.80;99.90
52107;DHT22;38105;52.968;5.974;2022-08-19T05:55:18;25.10;99.90
52107;DHT22;38105;52.968;5.974;2022-08-19T05:57:45;25.50;99.90
52107;DHT22;38105;52.968;5.974;2022-08-19T06:00:12;25.90;99.90
52107;DHT22;38105;52.968;5.974;2022-08-19T06:02:39;26.00;99.90
52107;DHT22;38105;52.968;5.974;2022-08-19T06:05:06;26.30;99.90
52107;DHT22;38105;52.968;5.974;2022-08-19T06:07:35;26.70;99.90
52107;DHT22;38105;52.968;5.974;2022-08-19T06:10:01;27.10;99.90
52107;DHT22;38105;52.968;5.974;2022-08-19T06:12:28;27.40;99.90
52107;DHT22;38105;52.968;5.974;2022-08-19T06:15:06;27.70;99.90
52107;DHT22;38105;52.968;5.974;2022-08-19T06:17:33;27.80;99.90
52107;DHT22;38105;52.968;5.974;2022-08-19T06:20:00;27.90;99.90
52107;DHT22;38105;52.968;5.974;2022-08-19T06:22:27;27.90;99.90
52107;DHT22;38105;52.968;5.974;2022-08-19T06:24:53;28.20;99.90
52107;DHT22;38105;52.968;5.974;2022-08-19T06:27:19;28.40;99.90
52107;DHT22;38105;52.968;5.974;2022-08-19T06:29:45;28.40;99.90
52107;DHT22;38105;52.968;5.974;2022-08-19T06:32:13;28.40;99.90
52107;DHT22;38105;52.968;5.974;2022-08-19T06:34:40;28.80;99.90
52107;DHT22;38105;52.968;5.974;2022-08-19T06:37:06;29.30;99.90
52107;DHT22;38105;52.968;5.974;2022-08-19T06:39:35;29.80;99.90
52107;DHT22;38105;52.968;5.974;2022-08-19T06:42:04;30.00;99.90
52107;DHT22;38105;52.968;5.974;2022-08-19T06:44:35;30.70;99.90
52107;DHT22;38105;52.968;5.974;2022-08-19T06:47:03;31.00;99.90
52107;DHT22;38105;52.968;5.974;2022-08-19T06:49:30;31.30;99.90
52107;DHT22;38105;52.968;5.974;2022-08-19T06:51:59;31.50;99.90
52107;DHT22;38105;52.968;5.974;2022-08-19T06:54:25;32.00;99.90
52107;DHT22;38105;52.968;5.974;2022-08-19T06:56:52;32.10;99.90
52107;DHT22;38105;52.968;5.974;2022-08-19T06:59:20;32.50;99.90
52107;DHT22;38105;52.968;5.974;2022-08-19T07:01:53;32.30;99.40
52107;DHT22;38105;52.968;5.974;2022-08-19T07:04:21;32.20;98.80
52107;DHT22;38105;52.968;5.974;2022-08-19T07:06:47;32.30;99.80
52107;DHT22;38105;52.968;5.974;2022-08-19T07:09:15;32.40;99.70
52107;DHT22;38105;52.968;5.974;2022-08-19T07:11:51;32.20;99.20
52107;DHT22;38105;52.968;5.974;2022-08-19T07:14:19;32.20;98.70
52107;DHT22;38105;52.968;5.974;2022-08-19T07:16:48;32.60;98.90
52107;DHT22;38105;52.968;5.974;2022-08-19T07:19:16;33.20;99.00
52107;DHT22;38105;52.968;5.974;2022-08-19T07:21:42;33.50;98.60
52107;DHT22;38105;52.968;5.974;2022-08-19T07:24:08;33.40;98.30
52107;DHT22;38105;52.968;5.974;2022-08-19T07:26:38;33.70;98.00
52107;DHT22;38105;52.968;5.974;2022-08-19T07:29:06;33.30;97.20
52107;DHT22;38105;52.968;5.974;2022-08-19T07:31:32;33.60;98.10
52107;DHT22;38105;52.968;5.974;2022-08-19T07:34:03;33.80;97.50
52107;DHT22;38105;52.968;5.974;2022-08-19T07:36:34;33.80;97.60
52107;DHT22;38105;52.968;5.974;2022-08-19T07:39:05;34.40;97.70
52107;DHT22;38105;52.968;5.974;2022-08-19T07:41:31;34.60;96.50
52107;DHT22;38105;52.968;5.974;2022-08-19T07:44:00;34.60;97.00
52107;DHT22;38105;52.968;5.974;2022-08-19T07:46:30;35.10;96.60
52107;DHT22;38105;52.968;5.974;2022-08-19T07:48:57;35.30;96.40
52107;DHT22;38105;52.968;5.974;2022-08-19T07:51:22;35.10;96.00
52107;DHT22;38105;52.968;5.974;2022-08-19T07:53:49;35.30;96.40
52107;DHT22;38105;52.968;5.974;2022-08-19T07:56:17;34.90;95.90
52107;DHT22;38105;52.968;5.974;2022-08-19T07:58:45;35.20;96.30
52107;DHT22;38105;52.968;5.974;2022-08-19T08:01:15;35.30;96.00
52107;DHT22;38105;52.968;5.974;2022-08-19T08:03:42;35.40;95.70
52107;DHT22;38105;52.968;5.974;2022-08-19T08:06:26;35.80;95.50
52107;DHT22;38105;52.968;5.974;2022-08-19T08:09:11;35.20;95.40
52107;DHT22;38105;52.968;5.974;2022-08-19T08:14:48;35.40;95.40
52107;DHT22;38105;52.968;5.974;2022-08-19T08:17:16;36.10;95.40
52107;DHT22;38105;52.968;5.974;2022-08-19T08:19:44;36.10;95.10
52107;DHT22;38105;52.968;5.974;2022-08-19T08:22:11;35.90;95.40
52107;DHT22;38105;52.968;5.974;2022-08-19T08:25:18;35.80;95.30
52107;DHT22;38105;52.968;5.974;2022-08-19T08:27:45;36.00;94.80
52107;DHT22;38105;52.968;5.974;2022-08-19T08:30:18;36.10;94.70
52107;DHT22;38105;52.968;5.974;2022-08-19T08:32:44;36.00;94.90
52107;DHT22;38105;52.968;5.974;2022-08-19T08:35:14;36.00;94.60
52107;DHT22;38105;52.968;5.974;2022-08-19T08:37:40;35.40;94.80
52107;DHT22;38105;52.968;5.974;2022-08-19T08:40:21;35.70;94.90
52107;DHT22;38105;52.968;5.974;2022-08-19T08:43:07;35.00;94.60
52107;DHT22;38105;52.968;5.974;2022-08-19T08:45:47;33.90;94.70
52107;DHT22;38105;52.968;5.974;2022-08-19T08:48:45;33.60;96.00
52107;DHT22;38105;52.968;5.974;2022-08-19T08:51:22;33.50;96.60
52107;DHT22;38105;52.968;5.974;2022-08-19T08:53:51;34.10;96.80
52107;DHT22;38105;52.968;5.974;2022-08-19T08:56:17;34.30;95.60
52107;DHT22;38105;52.968;5.974;2022-08-19T08:58:59;34.90;95.80
52107;DHT22;38105;52.968;5.974;2022-08-19T09:01:27;35.60;94.90
52107;DHT22;38105;52.968;5.974;2022-08-19T09:03:53;36.20;94.80
52107;DHT22;38105;52.968;5.974;2022-08-19T09:09:17;35.70;93.90
52107;DHT22;38105;52.968;5.974;2022-08-19T09:15:00;35.40;94.70
52107;DHT22;38105;52.968;5.974;2022-08-19T09:17:28;36.10;94.40
52107;DHT22;38105;52.968;5.974;2022-08-19T09:22:43;36.70;93.10
52107;DHT22;38105;52.968;5.974;2022-08-19T09:25:13;36.40;92.70
52107;DHT22;38105;52.968;5.974;2022-08-19T09:27:40;36.80;93.10
52107;DHT22;38105;52.968;5.974;2022-08-19T09:30:08;36.90;93.10
52107;DHT22;38105;52.968;5.974;2022-08-19T09:32:35;36.90;92.90
52107;DHT22;38105;52.968;5.974;2022-08-19T09:35:00;36.70;92.40
52107;DHT22;38105;52.968;5.974;2022-08-19T09:37:27;36.90;92.60
52107;DHT22;38105;52.968;5.974;2022-08-19T09:39:53;36.90;92.70
52107;DHT22;38105;52.968;5.974;2022-08-19T09:42:19;37.10;92.40
52107;DHT22;38105;52.968;5.974;2022-08-19T09:44:46;36.90;91.90
52107;DHT22;38105;52.968;5.974;2022-08-19T09:47:13;37.00;92.00
52107;DHT22;38105;52.968;5.974;2022-08-19T09:49:40;36.60;91.60
52107;DHT22;38105;52.968;5.974;2022-08-19T09:52:08;36.10;92.00
52107;DHT22;38105;52.968;5.974;2022-08-19T09:54:35;35.90;91.90
52107;DHT22;38105;52.968;5.974;2022-08-19T09:57:01;36.10;91.90
52107;DHT22;38105;52.968;5.974;2022-08-19T09:59:29;36.20;91.90
52107;DHT22;38105;52.968;5.974;2022-08-19T10:01:55;36.50;92.00
52107;DHT22;38105;52.968;5.974;2022-08-19T10:04:22;36.40;92.30
52107;DHT22;38105;52.968;5.974;2022-08-19T10:06:49;36.70;92.50
52107;DHT22;38105;52.968;5.974;2022-08-19T10:09:17;36.20;92.00
52107;DHT22;38105;52.968;5.974;2022-08-19T10:11:44;35.50;91.50
52107;DHT22;38105;52.968;5.974;2022-08-19T10:14:15;35.10;92.30
52107;DHT22;38105;52.968;5.974;2022-08-19T10:16:46;35.00;92.00
52107;DHT22;38105;52.968;5.974;2022-08-19T10:19:12;34.60;91.60
52107;DHT22;38105;52.968;5.974;2022-08-19T10:21:38;34.70;92.50
52107;DHT22;38105;52.968;5.974;2022-08-19T10:24:05;34.60;92.20
52107;DHT22;38105;52.968;5.974;2022-08-19T10:26:34;34.30;92.50
52107;DHT22;38105;52.968;5.974;2022-08-19T10:29:03;33.60;92.60
52107;DHT22;38105;52.968;5.974;2022-08-19T10:31:32;33.50;93.40
52107;DHT22;38105;52.968;5.974;2022-08-19T10:33:58;33.40;94.20
52107;DHT22;38105;52.968;5.974;2022-08-19T10:36:34;33.10;94.10
52107;DHT22;38105;52.968;5.974;2022-08-19T10:39:05;33.00;94.40
52107;DHT22;38105;52.968;5.974;2022-08-19T10:41:34;33.00;94.50
52107;DHT22;38105;52.968;5.974;2022-08-19T10:44:03;32.90;94.30
52107;DHT22;38105;52.968;5.974;2022-08-19T10:46:31;32.90;94.10
52107;DHT22;38105;52.968;5.974;2022-08-19T10:49:01;32.70;94.10
52107;DHT22;38105;52.968;5.974;2022-08-19T10:51:27;32.50;94.40
52107;DHT22;38105;52.968;5.974;2022-08-19T10:54:14;32.00;94.10
52107;DHT22;38105;52.968;5.974;2022-08-19T10:56:42;31.80;94.70
52107;DHT22;38105;52.968;5.974;2022-08-19T10:59:29;31.30;95.50
52107;DHT22;38105;52.968;5.974;2022-08-19T11:01:59;31.30;95.40
52107;DHT22;38105;52.968;5.974;2022-08-19T11:04:27;31.40;95.80
52107;DHT22;38105;52.968;5.974;2022-08-19T11:06:53;31.00;95.40
52107;DHT22;38105;52.968;5.974;2022-08-19T11:09:23;31.00;96.20
52107;DHT22;38105;52.968;5.974;2022-08-19T11:11:50;31.30;96.00
52107;DHT22;38105;52.968;5.974;2022-08-19T11:14:19;31.30;96.10
52107;DHT22;38105;52.968;5.974;2022-08-19T11:16:52;31.60;95.70
52107;DHT22;38105;52.968;5.974;2022-08-19T11:19:21;31.30;96.20
52107;DHT22;38105;52.968;5.974;2022-08-19T11:21:52;31.40;96.50
52107;DHT22;38105;52.968;5.974;2022-08-19T11:24:21;31.40;95.80
52107;DHT22;38105;52.968;5.974;2022-08-19T11:26:53;31.30;95.90
52107;DHT22;38105;52.968;5.974;2022-08-19T11:29:23;31.20;95.80
52107;DHT22;38105;52.968;5.974;2022-08-19T11:31:53;31.20;96.00
52107;DHT22;38105;52.968;5.974;2022-08-19T11:34:24;31.40;96.20
52107;DHT22;38105;52.968;5.974;2022-08-19T11:36:55;31.40;95.50
52107;DHT22;38105;52.968;5.974;2022-08-19T11:39:24;31.80;95.70
52107;DHT22;38105;52.968;5.974;2022-08-19T11:41:51;31.90;96.00
52107;DHT22;38105;52.968;5.974;2022-08-19T11:44:17;32.00;96.50
52107;DHT22;38105;52.968;5.974;2022-08-19T11:46:44;31.90;95.60
52107;DHT22;38105;52.968;5.974;2022-08-19T11:49:17;31.90;96.10
52107;DHT22;38105;52.968;5.974;2022-08-19T11:51:44;31.80;96.00
52107;DHT22;38105;52.968;5.974;2022-08-19T11:54:12;31.40;96.00
52107;DHT22;38105;52.968;5.974;2022-08-19T11:56:41;31.40;96.70
52107;DHT22;38105;52.968;5.974;2022-08-19T11:59:07;31.30;96.70
52107;DHT22;38105;52.968;5.974;2022-08-19T12:01:35;31.10;95.80
52107;DHT22;38105;52.968;5.974;2022-08-19T12:04:01;30.60;96.10
52107;DHT22;38105;52.968;5.974;2022-08-19T12:06:31;30.40;96.60
52107;DHT22;38105;52.968;5.974;2022-08-19T12:09:05;30.40;97.60
52107;DHT22;38105;52.968;5.974;2022-08-19T12:11:32;30.70;97.70
52107;DHT22;38105;52.968;5.974;2022-08-19T12:13:58;30.70;97.20
52107;DHT22;38105;52.968;5.974;2022-08-19T12:16:26;30.80;97.60
52107;DHT22;38105;52.968;5.974;2022-08-19T12:18:53;30.80;97.20
52107;DHT22;38105;52.968;5.974;2022-08-19T12:21:22;30.40;97.20
52107;DHT22;38105;52.968;5.974;2022-08-19T12:23:52;30.20;97.30
52107;DHT22;38105;52.968;5.974;2022-08-19T12:26:18;30.00;97.90
52107;DHT22;38105;52.968;5.974;2022-08-19T12:28:46;30.10;98.50
52107;DHT22;38105;52.968;5.974;2022-08-19T12:31:14;29.90;97.50
52107;DHT22;38105;52.968;5.974;2022-08-19T12:33:41;29.60;97.90
52107;DHT22;38105;52.968;5.974;2022-08-19T12:36:09;29.70;97.80
52107;DHT22;38105;52.968;5.974;2022-08-19T12:38:37;29.60;98.50
52107;DHT22;38105;52.968;5.974;2022-08-19T12:41:05;29.40;98.20
52107;DHT22;38105;52.968;5.974;2022-08-19T12:43:37;29.40;98.50
52107;DHT22;38105;52.968;5.974;2022-08-19T12:46:04;29.30;98.20
52107;DHT22;38105;52.968;5.974;2022-08-19T12:48:33;29.30;98.70
52107;DHT22;38105;52.968;5.974;2022-08-19T12:51:00;29.10;98.40
52107;DHT22;38105;52.968;5.974;2022-08-19T12:53:27;29.20;98.30
52107;DHT22;38105;52.968;5.974;2022-08-19T12:55:58;29.10;99.10
52107;DHT22;38105;52.968;5.974;2022-08-19T12:58:26;29.30;99.00
52107;DHT22;38105;52.968;5.974;2022-08-19T13:00:52;29.30;99.10
52107;DHT22;38105;52.968;5.974;2022-08-19T13:03:17;29.30;98.60
52107;DHT22;38105;52.968;5.974;2022-08-19T13:05:43;29.40;98.80
52107;DHT22;38105;52.968;5.974;2022-08-19T13:08:09;29.30;98.80
52107;DHT22;38105;52.968;5.974;2022-08-19T13:10:37;29.10;99.40
52107;DHT22;38105;52.968;5.974;2022-08-19T13:13:09;28.90;99.90
52107;DHT22;38105;52.968;5.974;2022-08-19T13:15:38;28.70;99.90
52107;DHT22;38105;52.968;5.974;2022-08-19T13:18:11;28.40;99.90
52107;DHT22;38105;52.968;5.974;2022-08-19T13:20:43;28.30;99.90
52107;DHT22;38105;52.968;5.974;2022-08-19T13:23:11;28.20;99.90
52107;DHT22;38105;52.968;5.974;2022-08-19T13:25:36;28.20;99.90
52107;DHT22;38105;52.968;5.974;2022-08-19T13:28:03;27.80;99.90
52107;DHT22;38105;52.968;5.974;2022-08-19T13:30:31;27.30;99.90
52107;DHT22;38105;52.968;5.974;2022-08-19T13:33:19;27.20;99.90
52107;DHT22;38105;52.968;5.974;2022-08-19T13:35:57;27.20;99.90
52107;DHT22;38105;52.968;5.974;2022-08-19T13:38:25;27.20;99.90
52107;DHT22;38105;52.968;5.974;2022-08-19T13:40:55;27.20;99.90
52107;DHT22;38105;52.968;5.974;2022-08-19T13:43:22;27.30;99.90
52107;DHT22;38105;52.968;5.974;2022-08-19T13:45:49;27.10;99.90
52107;DHT22;38105;52.968;5.974;2022-08-19T13:48:15;26.90;99.90
52107;DHT22;38105;52.968;5.974;2022-08-19T13:50:45;27.00;99.90
52107;DHT22;38105;52.968;5.974;2022-08-19T13:53:14;27.00;99.90
52107;DHT22;38105;52.968;5.974;2022-08-19T13:55:41;27.00;99.90
52107;DHT22;38105;52.968;5.974;2022-08-19T13:58:08;27.20;99.90
52107;DHT22;38105;52.968;5.974;2022-08-19T14:00:38;27.40;99.90
52107;DHT22;38105;52.968;5.974;2022-08-19T14:03:06;27.70;99.90
52107;DHT22;38105;52.968;5.974;2022-08-19T14:05:37;27.80;99.90
52107;DHT22;38105;52.968;5.974;2022-08-19T14:08:03;27.80;99.90
52107;DHT22;38105;52.968;5.974;2022-08-19T14:10:29;27.80;99.90
52107;DHT22;38105;52.968;5.974;2022-08-19T14:12:57;27.80;99.90
52107;DHT22;38105;52.968;5.974;2022-08-19T14:15:28;27.70;99.90
52107;DHT22;38105;52.968;5.974;2022-08-19T14:17:54;27.80;99.90
52107;DHT22;38105;52.968;5.974;2022-08-19T14:20:20;27.50;99.90
52107;DHT22;38105;52.968;5.974;2022-08-19T14:22:47;27.50;99.90
52107;DHT22;38105;52.968;5.974;2022-08-19T14:25:20;27.60;99.90
52107;DHT22;38105;52.968;5.974;2022-08-19T14:27:47;27.50;99.90
52107;DHT22;38105;52.968;5.974;2022-08-19T14:30:15;27.60;99.90
52107;DHT22;38105;52.968;5.974;2022-08-19T14:32:41;27.40;99.90
52107;DHT22;38105;52.968;5.974;2022-08-19T14:35:09;27.30;99.90
52107;DHT22;38105;52.968;5.974;2022-08-19T14:37:35;27.30;99.90
52107;DHT22;38105;52.968;5.974;2022-08-19T14:40:02;27.20;99.90
52107;DHT22;38105;52.968;5.974;2022-08-19T14:42:28;27.10;99.90
52107;DHT22;38105;52.968;5.974;2022-08-19T14:44:59;27.00;99.90
52107;DHT22;38105;52.968;5.974;2022-08-19T14:47:25;26.70;99.90
52107;DHT22;38105;52.968;5.974;2022-08-19T14:49:51;26.40;99.90
52107;DHT22;38105;52.968;5.974;2022-08-19T14:52:16;26.60;99.90
52107;DHT22;38105;52.968;5.974;2022-08-19T14:54:42;26.60;99.90
52107;DHT22;38105;52.968;5.974;2022-08-19T14:57:12;26.80;99.90
52107;DHT22;38105;52.968;5.974;2022-08-19T14:59:37;26.70;99.90
52107;DHT22;38105;52.968;5.974;2022-08-19T15:02:04;26.70;99.90
52107;DHT22;38105;52.968;5.974;2022-08-19T15:04:29;26.70;99.90
52107;DHT22;38105;52.968;5.974;2022-08-19T15:06:55;26.60;99.90
52107;DHT22;38105;52.968;5.974;2022-08-19T15:09:20;26.60;99.90
52107;DHT22;38105;52.968;5.974;2022-08-19T15:11:46;26.50;99.90
52107;DHT22;38105;52.968;5.974;2022-08-19T15:14:12;26.30;99.90
52107;DHT22;38105;52.968;5.974;2022-08-19T15:16:39;26.30;99.90
52107;DHT22;38105;52.968;5.974;2022-08-19T15:19:06;26.20;99.90
52107;DHT22;38105;52.968;5.974;2022-08-19T15:21:31;26.00;99.90
52107;DHT22;38105;52.968;5.974;2022-08-19T15:23:58;25.80;99.90
52107;DHT22;38105;52.968;5.974;2022-08-19T15:26:24;25.80;99.90
52107;DHT22;38105;52.968;5.974;2022-08-19T15:28:58;25.70;99.90
52107;DHT22;38105;52.968;5.974;2022-08-19T15:31:25;25.70;99.90
52107;DHT22;38105;52.968;5.974;2022-08-19T15:33:53;25.60;99.90
52107;DHT22;38105;52.968;5.974;2022-08-19T15:36:22;25.50;99.90
52107;DHT22;38105;52.968;5.974;2022-08-19T15:38:48;25.50;99.90
52107;DHT22;38105;52.968;5.974;2022-08-19T15:41:24;25.40;99.90
52107;DHT22;38105;52.968;5.974;2022-08-19T15:43:57;25.50;99.90
52107;DHT22;38105;52.968;5.974;2022-08-19T15:46:26;25.70;99.90
52107;DHT22;38105;52.968;5.974;2022-08-19T15:48:53;25.90;99.90
52107;DHT22;38105;52.968;5.974;2022-08-19T15:51:20;25.90;99.90
52107;DHT22;38105;52.968;5.974;2022-08-19T15:53:46;25.90;99.90